LGKO/KGS METAR and TAF weather

Enter ICAO airport designator
Station Type Date Time Source
LGKO METAR 2019/12/08 00:50 UTC NOAA

LGKO 080050Z 36003KT 9999 FEW018 SCT025 13/11 Q1016


Station Type Date Time Source
LGKO Decoded METAR 2019/12/08 00:50 UTC NOAA

Kos Airport , Greece (LGKO) 36-47N 027-04E
Dec 07, 2019 - 07:50 PM EST / 2019.12.08 0050 UTC
Wind: from the N (360 degrees) at 3 MPH (3 KT):0
Visibility: greater than 7 mile(s):0
Sky conditions: partly cloudy
Temperature: 55 F (13 C)
Dew Point: 51 F (11 C)
Relative Humidity: 87%
Pressure (altimeter): 30.00 in. Hg (1016 hPa)
ob: LGKO 080050Z 36003KT 9999 FEW018 SCT025 13/11 Q1016
cycle: 1

Station Type Date Time Source
LGKO TAF 2019/12/07 18:16 UTC NOAA

TAF LGKO 071700Z 0718/0818 27012KT 9999 FEW018 PROB40
TEMPO 0718/0810 5000 SHRA FEW018TCU BKN025
BECMG 0800/0802 35015KT

Example: see airport list